Time;durP1;ratioP1;P1;durP2;ratioP2;P2;SDS_P1;SDS_P2;PMS_P1;PMS_P2;Temp;Humidity;BMP_temperature;BMP_pressure;BME280_temperature;BME280_humidity;BME280_pressure;Samples;Min_cycle;Max_cycle;Signal;HPM_P1;HPM_P2
2019/05/03 00:00:58;;;;;;;;;;;;;;;12.53;88.55;99671.90;;;;-49
2019/05/03 00:02:47;;;;;;;;;;;;;;;12.53;88.05;99669.50;;;;-52
2019/05/03 00:03:37;;;;;;;;;;;;;;;12.56;87.75;99669.50;;;;-50
2019/05/03 00:04:37;;;;;;;;;;;;;;;12.53;87.73;99669.20;;;;-51
2019/05/03 00:05:43;;;;;;;;;;;;;;;12.57;88.20;99670.60;;;;-52
2019/05/03 00:06:37;;;;;;;;;;;;;;;12.56;88.00;99670.30;;;;-54
2019/05/03 00:07:37;;;;;;;;;;;;;;;12.57;88.76;99673.20;;;;-54
2019/05/03 00:08:37;;;;;;;;;;;;;;;12.57;88.06;99674.20;;;;-54
2019/05/03 00:09:37;;;;;;;;;;;;;;;12.55;87.81;99668.70;;;;-52
2019/05/03 00:10:37;;;;;;;;;;;;;;;12.55;88.22;99670.90;;;;-55
2019/05/03 00:11:37;;;;;;;;;;;;;;;12.56;88.04;99667.00;;;;-53
2019/05/03 00:12:37;;;;;;;;;;;;;;;12.56;88.20;99665.60;;;;-50
2019/05/03 00:13:37;;;;;;;;;;;;;;;12.53;87.69;99666.20;;;;-51
2019/05/03 00:14:39;;;;;;;;;;;;;;;12.52;88.50;99665.60;;;;-51
2019/05/03 00:15:54;;;;;;;;;;;;;;;12.56;87.74;99666.30;;;;-51
2019/05/03 00:16:37;;;;;;;;;;;;;;;12.53;88.49;99665.40;;;;-50
2019/05/03 00:17:37;;;;;;;;;;;;;;;12.53;88.64;99665.90;;;;-51
2019/05/03 00:18:37;;;;;;;;;;;;;;;12.56;88.35;99665.80;;;;-50
2019/05/03 00:19:37;;;;;;;;;;;;;;;12.52;88.43;99668.00;;;;-50
2019/05/03 00:20:37;;;;;;;;;;;;;;;12.53;87.99;99667.80;;;;-51
2019/05/03 00:21:37;;;;;;;;;;;;;;;12.52;87.96;99668.50;;;;-53
2019/05/03 00:22:37;;;;;;;;;;;;;;;12.52;88.19;99668.00;;;;-50
2019/05/03 00:23:37;;;;;;;;;;;;;;;12.55;88.29;99669.90;;;;-52
2019/05/03 00:24:37;;;;;;;;;;;;;;;12.56;88.69;99671.20;;;;-52
2019/05/03 00:25:37;;;;;;;;;;;;;;;12.56;87.98;99669.40;;;;-54
2019/05/03 00:26:37;;;;;;;;;;;;;;;12.57;88.25;99669.40;;;;-51
2019/05/03 00:27:37;;;;;;;;;;;;;;;12.59;87.77;99670.30;;;;-51
2019/05/03 00:28:37;;;;;;;;;;;;;;;12.60;87.89;99669.30;;;;-51
2019/05/03 00:29:37;;;;;;;;;;;;;;;12.56;87.34;99668.40;;;;-51
2019/05/03 00:30:37;;;;;;;;;;;;;;;12.57;87.23;99666.10;;;;-51
2019/05/03 00:31:37;;;;;;;;;;;;;;;12.57;88.75;99669.80;;;;-51
2019/05/03 00:32:37;;;;;;;;;;;;;;;12.51;88.69;99668.90;;;;-51
2019/05/03 00:33:37;;;;;;;;;;;;;;;12.52;88.59;99665.00;;;;-51
2019/05/03 00:34:41;;;;;;;;;;;;;;;12.52;88.17;99665.60;;;;-51
2019/05/03 00:36:43;;;;;;;;;;;;;;;12.52;88.59;99671.80;;;;-50
2019/05/03 00:37:40;;;;;;;;;;;;;;;12.52;88.37;99668.00;;;;-51
2019/05/03 00:38:39;;;;;;;;;;;;;;;12.53;88.69;99672.80;;;;-52
2019/05/03 00:39:53;;;;;;;;;;;;;;;12.53;88.56;99673.80;;;;-50
2019/05/03 00:40:39;;;;;;;;;;;;;;;12.55;88.62;99673.70;;;;-51
2019/05/03 00:41:39;;;;;;;;;;;;;;;12.57;87.92;99675.00;;;;-52
2019/05/03 00:42:39;;;;;;;;;;;;;;;12.57;87.63;99675.60;;;;-51
2019/05/03 00:43:39;;;;;;;;;;;;;;;12.56;87.78;99674.30;;;;-51
2019/05/03 00:44:39;;;;;;;;;;;;;;;12.56;88.38;99676.30;;;;-51
2019/05/03 00:45:39;;;;;;;;;;;;;;;12.55;87.67;99671.60;;;;-51
2019/05/03 00:46:39;;;;;;;;;;;;;;;12.53;87.23;99677.60;;;;-51
2019/05/03 00:47:39;;;;;;;;;;;;;;;12.56;87.22;99676.30;;;;-51
2019/05/03 00:48:39;;;;;;;;;;;;;;;12.56;87.50;99674.90;;;;-51
2019/05/03 00:49:39;;;;;;;;;;;;;;;12.57;88.22;99678.30;;;;-51
2019/05/03 00:50:39;;;;;;;;;;;;;;;12.63;87.97;99672.60;;;;-51
2019/05/03 00:51:39;;;;;;;;;;;;;;;12.59;87.60;99676.00;;;;-51
2019/05/03 00:52:39;;;;;;;;;;;;;;;12.59;87.73;99679.80;;;;-50
2019/05/03 00:53:39;;;;;;;;;;;;;;;12.62;87.21;99673.70;;;;-52
2019/05/03 00:54:39;;;;;;;;;;;;;;;12.60;87.26;99673.70;;;;-52
2019/05/03 00:55:39;;;;;;;;;;;;;;;12.62;87.30;99672.80;;;;-52
2019/05/03 00:56:39;;;;;;;;;;;;;;;12.60;86.85;99672.90;;;;-51
2019/05/03 00:57:39;;;;;;;;;;;;;;;12.62;87.21;99672.70;;;;-52
2019/05/03 00:58:51;;;;;;;;;;;;;;;12.65;87.25;99673.20;;;;-51
2019/05/03 00:59:39;;;;;;;;;;;;;;;12.60;86.87;99673.20;;;;-51
2019/05/03 01:00:39;;;;;;;;;;;;;;;12.65;87.65;99671.10;;;;-51
2019/05/03 01:01:39;;;;;;;;;;;;;;;12.66;87.82;99671.90;;;;-51
2019/05/03 01:02:39;;;;;;;;;;;;;;;12.62;86.96;99674.40;;;;-52
2019/05/03 01:03:39;;;;;;;;;;;;;;;12.67;87.69;99674.80;;;;-53
2019/05/03 01:04:39;;;;;;;;;;;;;;;12.65;87.30;99676.80;;;;-52
2019/05/03 01:05:39;;;;;;;;;;;;;;;12.67;87.19;99671.30;;;;-50
2019/05/03 01:06:39;;;;;;;;;;;;;;;12.65;87.24;99671.90;;;;-54
2019/05/03 01:07:39;;;;;;;;;;;;;;;12.63;86.93;99675.50;;;;-53
2019/05/03 01:08:39;;;;;;;;;;;;;;;12.65;88.10;99672.20;;;;-54
2019/05/03 01:09:39;;;;;;;;;;;;;;;12.56;87.96;99672.20;;;;-53
2019/05/03 01:10:39;;;;;;;;;;;;;;;12.56;88.36;99672.80;;;;-54
2019/05/03 01:11:39;;;;;;;;;;;;;;;12.56;88.48;99675.20;;;;-52
2019/05/03 01:12:39;;;;;;;;;;;;;;;12.57;87.72;99671.80;;;;-52
2019/05/03 01:13:39;;;;;;;;;;;;;;;12.57;87.45;99674.70;;;;-53
2019/05/03 01:14:39;;;;;;;;;;;;;;;12.59;87.86;99672.70;;;;-54
2019/05/03 01:16:39;;;;;;;;;;;;;;;12.59;88.17;99680.40;;;;-52
2019/05/03 01:17:39;;;;;;;;;;;;;;;12.59;88.16;99675.40;;;;-52
2019/05/03 01:18:39;;;;;;;;;;;;;;;12.55;87.99;99673.80;;;;-54
2019/05/03 01:19:39;;;;;;;;;;;;;;;12.56;87.23;99673.50;;;;-53
2019/05/03 01:20:39;;;;;;;;;;;;;;;12.55;87.09;99673.10;;;;-54
2019/05/03 01:21:39;;;;;;;;;;;;;;;12.56;87.50;99672.10;;;;-53
2019/05/03 01:22:39;;;;;;;;;;;;;;;12.55;87.81;99674.60;;;;-52
2019/05/03 01:23:39;;;;;;;;;;;;;;;12.56;87.61;99671.90;;;;-53
2019/05/03 01:24:39;;;;;;;;;;;;;;;12.53;87.91;99671.50;;;;-51
2019/05/03 01:25:39;;;;;;;;;;;;;;;12.56;88.28;99674.30;;;;-52
2019/05/03 01:26:39;;;;;;;;;;;;;;;12.55;87.98;99671.50;;;;-52
2019/05/03 01:27:39;;;;;;;;;;;;;;;12.55;87.39;99671.40;;;;-53
2019/05/03 01:28:39;;;;;;;;;;;;;;;12.53;87.93;99670.70;;;;-53
2019/05/03 01:29:39;;;;;;;;;;;;;;;12.53;88.04;99670.20;;;;-52
2019/05/03 01:30:39;;;;;;;;;;;;;;;12.56;87.69;99668.30;;;;-52
2019/05/03 01:31:39;;;;;;;;;;;;;;;12.53;87.87;99670.60;;;;-52
2019/05/03 01:32:39;;;;;;;;;;;;;;;12.53;87.89;99669.00;;;;-53
2019/05/03 01:33:39;;;;;;;;;;;;;;;12.52;87.28;99669.60;;;;-53
2019/05/03 01:34:39;;;;;;;;;;;;;;;12.55;88.00;99669.80;;;;-52
2019/05/03 01:35:39;;;;;;;;;;;;;;;12.53;87.68;99669.90;;;;-53
2019/05/03 01:36:39;;;;;;;;;;;;;;;12.52;87.27;99667.50;;;;-52
2019/05/03 01:37:39;;;;;;;;;;;;;;;12.51;87.40;99669.00;;;;-53
2019/05/03 01:38:39;;;;;;;;;;;;;;;12.48;87.05;99669.70;;;;-53
2019/05/03 01:39:39;;;;;;;;;;;;;;;12.46;86.94;99669.30;;;;-53
2019/05/03 01:40:39;;;;;;;;;;;;;;;12.41;87.21;99669.40;;;;-53
2019/05/03 01:41:39;;;;;;;;;;;;;;;12.44;86.42;99664.20;;;;-52
2019/05/03 01:42:39;;;;;;;;;;;;;;;12.44;86.88;99671.30;;;;-54
2019/05/03 01:43:39;;;;;;;;;;;;;;;12.46;87.01;99668.20;;;;-53
2019/05/03 01:44:39;;;;;;;;;;;;;;;12.42;87.46;99671.90;;;;-52
2019/05/03 01:45:39;;;;;;;;;;;;;;;12.35;87.10;99670.70;;;;-52
2019/05/03 01:46:39;;;;;;;;;;;;;;;12.24;87.18;99673.50;;;;-52
2019/05/03 01:48:04;;;;;;;;;;;;;;;12.14;86.87;99668.50;;;;-53
2019/05/03 01:48:55;;;;;;;;;;;;;;;12.18;86.50;99670.50;;;;-54
2019/05/03 01:49:51;;;;;;;;;;;;;;;12.18;86.87;99671.80;;;;-54
2019/05/03 01:50:44;;;;;;;;;;;;;;;12.11;87.44;99668.80;;;;-52
2019/05/03 01:51:51;;;;;;;;;;;;;;;12.04;88.02;99667.30;;;;-53
2019/05/03 01:52:40;;;;;;;;;;;;;;;11.97;87.24;99669.90;;;;-53
2019/05/03 01:53:39;;;;;;;;;;;;;;;12.00;87.29;99668.10;;;;-53
2019/05/03 01:54:39;;;;;;;;;;;;;;;11.96;87.60;99671.30;;;;-53
2019/05/03 01:55:51;;;;;;;;;;;;;;;12.00;87.73;99670.70;;;;-53
2019/05/03 01:56:39;;;;;;;;;;;;;;;12.03;87.46;99668.50;;;;-54
2019/05/03 01:57:39;;;;;;;;;;;;;;;12.03;87.11;99670.50;;;;-54
2019/05/03 01:58:39;;;;;;;;;;;;;;;12.01;86.76;99668.40;;;;-55
2019/05/03 01:59:39;;;;;;;;;;;;;;;11.97;86.70;99669.70;;;;-53
2019/05/03 02:00:39;;;;;;;;;;;;;;;12.00;87.32;99671.90;;;;-54
2019/05/03 02:01:55;;;;;;;;;;;;;;;12.03;87.24;99669.70;;;;-52
2019/05/03 02:03:01;;;;;;;;;;;;;;;12.04;86.76;99671.20;;;;-52
2019/05/03 02:03:49;;;;;;;;;;;;;;;12.01;87.31;99671.60;;;;-53
2019/05/03 02:05:44;;;;;;;;;;;;;;;11.87;87.27;99669.50;;;;-53
2019/05/03 02:06:39;;;;;;;;;;;;;;;11.90;87.41;99672.60;;;;-53
2019/05/03 02:07:39;;;;;;;;;;;;;;;11.94;87.26;99674.40;;;;-55
2019/05/03 02:08:39;;;;;;;;;;;;;;;11.96;87.22;99673.30;;;;-52
2019/05/03 02:09:39;;;;;;;;;;;;;;;11.89;87.24;99682.40;;;;-52
2019/05/03 02:10:39;;;;;;;;;;;;;;;11.92;86.50;99677.90;;;;-55
2019/05/03 02:11:39;;;;;;;;;;;;;;;11.90;86.18;99681.50;;;;-54
2019/05/03 02:12:39;;;;;;;;;;;;;;;11.92;86.02;99684.80;;;;-54
2019/05/03 02:13:39;;;;;;;;;;;;;;;11.94;86.09;99683.40;;;;-53
2019/05/03 02:14:39;;;;;;;;;;;;;;;11.94;86.50;99685.30;;;;-54
2019/05/03 02:15:39;;;;;;;;;;;;;;;11.96;86.00;99686.60;;;;-54
2019/05/03 02:16:39;;;;;;;;;;;;;;;11.97;86.32;99684.40;;;;-55
2019/05/03 02:17:39;;;;;;;;;;;;;;;11.97;85.72;99686.10;;;;-53
2019/05/03 02:18:39;;;;;;;;;;;;;;;11.98;86.16;99690.50;;;;-54
2019/05/03 02:19:39;;;;;;;;;;;;;;;11.98;86.13;99692.00;;;;-54
2019/05/03 02:20:39;;;;;;;;;;;;;;;11.94;85.09;99694.60;;;;-52
2019/05/03 02:21:39;;;;;;;;;;;;;;;11.94;85.75;99691.30;;;;-54
2019/05/03 02:22:39;;;;;;;;;;;;;;;11.93;85.92;99690.60;;;;-54
2019/05/03 02:23:40;;;;;;;;;;;;;;;11.94;86.33;99690.20;;;;-55
2019/05/03 02:24:39;;;;;;;;;;;;;;;11.92;86.49;99691.00;;;;-53
2019/05/03 02:25:39;;;;;;;;;;;;;;;11.96;86.33;99691.50;;;;-53
2019/05/03 02:26:39;;;;;;;;;;;;;;;11.94;86.01;99691.50;;;;-53
2019/05/03 02:27:39;;;;;;;;;;;;;;;11.94;85.82;99693.80;;;;-51
2019/05/03 02:28:39;;;;;;;;;;;;;;;11.89;85.92;99690.40;;;;-51
2019/05/03 02:29:39;;;;;;;;;;;;;;;11.83;86.26;99690.30;;;;-50
2019/05/03 02:30:39;;;;;;;;;;;;;;;11.84;86.22;99692.00;;;;-52
2019/05/03 02:31:39;;;;;;;;;;;;;;;11.84;86.59;99689.10;;;;-51
2019/05/03 02:32:39;;;;;;;;;;;;;;;11.89;86.71;99693.20;;;;-51
2019/05/03 02:33:39;;;;;;;;;;;;;;;11.77;85.94;99692.90;;;;-51
2019/05/03 02:34:39;;;;;;;;;;;;;;;11.79;86.48;99695.30;;;;-52
2019/05/03 02:35:39;;;;;;;;;;;;;;;11.80;86.11;99696.50;;;;-51
2019/05/03 02:36:39;;;;;;;;;;;;;;;11.82;85.89;99696.30;;;;-52
2019/05/03 02:37:41;;;;;;;;;;;;;;;11.83;86.20;99698.00;;;;-51
2019/05/03 02:38:39;;;;;;;;;;;;;;;11.83;86.61;99696.20;;;;-52
2019/05/03 02:39:39;;;;;;;;;;;;;;;11.82;86.45;99696.60;;;;-54
2019/05/03 02:40:39;;;;;;;;;;;;;;;11.76;86.38;99695.10;;;;-52
2019/05/03 02:41:39;;;;;;;;;;;;;;;11.79;86.27;99695.30;;;;-52
2019/05/03 02:42:47;;;;;;;;;;;;;;;11.79;86.13;99694.60;;;;-51
2019/05/03 02:43:48;;;;;;;;;;;;;;;11.75;86.39;99694.20;;;;-52
2019/05/03 02:44:39;;;;;;;;;;;;;;;11.70;86.51;99694.80;;;;-51
2019/05/03 02:48:48;;;;;;;;;;;;;;;11.73;86.67;99696.80;;;;-54
2019/05/03 02:49:43;;;;;;;;;;;;;;;11.72;86.26;99698.10;;;;-52
2019/05/03 02:50:32;;;;;;;;;;;;;;;11.73;86.53;99697.10;;;;-52
2019/05/03 02:51:31;;;;;;;;;;;;;;;11.72;86.54;99700.00;;;;-53
2019/05/03 02:52:35;;;;;;;;;;;;;;;11.62;86.72;99696.20;;;;-52
2019/05/03 02:53:31;;;;;;;;;;;;;;;11.62;86.63;99700.30;;;;-52
2019/05/03 02:54:32;;;;;;;;;;;;;;;11.61;86.67;99695.80;;;;-51
2019/05/03 02:55:31;;;;;;;;;;;;;;;11.56;87.23;99698.40;;;;-54
2019/05/03 02:56:32;;;;;;;;;;;;;;;11.56;87.57;99697.70;;;;-52
2019/05/03 02:57:32;;;;;;;;;;;;;;;11.54;87.51;99701.50;;;;-53
2019/05/03 02:58:32;;;;;;;;;;;;;;;11.58;87.43;99702.80;;;;-52
2019/05/03 02:59:32;;;;;;;;;;;;;;;11.55;87.43;99705.70;;;;-53
2019/05/03 03:00:31;;;;;;;;;;;;;;;11.54;87.24;99707.00;;;;-53
2019/05/03 03:01:32;;;;;;;;;;;;;;;11.51;87.06;99704.80;;;;-53
2019/05/03 03:02:32;;;;;;;;;;;;;;;11.49;86.72;99709.00;;;;-53
2019/05/03 03:03:32;;;;;;;;;;;;;;;11.32;87.40;99707.70;;;;-54
2019/05/03 03:04:32;;;;;;;;;;;;;;;11.21;86.58;99707.70;;;;-52
2019/05/03 03:05:31;;;;;;;;;;;;;;;11.22;86.86;99709.00;;;;-52
2019/05/03 03:06:31;;;;;;;;;;;;;;;11.15;87.14;99706.10;;;;-52
2019/05/03 03:07:32;;;;;;;;;;;;;;;11.07;87.60;99708.70;;;;-52
2019/05/03 03:08:32;;;;;;;;;;;;;;;11.04;87.57;99706.00;;;;-52
2019/05/03 03:09:32;;;;;;;;;;;;;;;11.12;87.48;99709.40;;;;-55
2019/05/03 03:10:31;;;;;;;;;;;;;;;11.12;87.42;99708.20;;;;-54
2019/05/03 03:11:31;;;;;;;;;;;;;;;11.06;87.55;99706.60;;;;-55
2019/05/03 03:12:31;;;;;;;;;;;;;;;11.06;87.95;99707.60;;;;-54
2019/05/03 03:13:32;;;;;;;;;;;;;;;11.10;87.46;99711.50;;;;-55
2019/05/03 03:14:32;;;;;;;;;;;;;;;11.15;87.38;99712.50;;;;-55
2019/05/03 03:15:32;;;;;;;;;;;;;;;11.11;88.05;99709.30;;;;-54
2019/05/03 03:16:32;;;;;;;;;;;;;;;11.10;88.01;99712.10;;;;-54
2019/05/03 03:17:31;;;;;;;;;;;;;;;11.03;87.32;99714.10;;;;-52
2019/05/03 03:18:31;;;;;;;;;;;;;;;10.99;87.41;99710.40;;;;-50
2019/05/03 03:19:32;;;;;;;;;;;;;;;10.97;86.83;99713.90;;;;-50
2019/05/03 03:20:32;;;;;;;;;;;;;;;11.07;87.10;99716.20;;;;-52
2019/05/03 03:21:33;;;;;;;;;;;;;;;11.03;87.93;99716.30;;;;-52
2019/05/03 03:22:32;;;;;;;;;;;;;;;11.06;86.67;99716.30;;;;-51
2019/05/03 03:23:32;;;;;;;;;;;;;;;11.06;87.31;99713.80;;;;-52
2019/05/03 03:24:32;;;;;;;;;;;;;;;11.01;87.61;99717.70;;;;-52
2019/05/03 03:25:33;;;;;;;;;;;;;;;10.94;87.85;99717.60;;;;-53
2019/05/03 03:26:32;;;;;;;;;;;;;;;10.89;87.57;99719.40;;;;-52
2019/05/03 03:27:32;;;;;;;;;;;;;;;10.87;87.20;99719.90;;;;-52
2019/05/03 03:28:31;;;;;;;;;;;;;;;10.83;87.71;99718.50;;;;-52
2019/05/03 03:29:32;;;;;;;;;;;;;;;10.80;86.99;99721.30;;;;-52
2019/05/03 03:30:34;;;;;;;;;;;;;;;10.76;86.62;99721.30;;;;-52
2019/05/03 03:31:31;;;;;;;;;;;;;;;10.73;87.03;99722.00;;;;-52
2019/05/03 03:32:32;;;;;;;;;;;;;;;10.66;86.61;99718.10;;;;-53
2019/05/03 03:33:32;;;;;;;;;;;;;;;10.69;86.86;99719.20;;;;-49
2019/05/03 03:34:32;;;;;;;;;;;;;;;10.66;86.42;99720.20;;;;-52
2019/05/03 03:35:32;;;;;;;;;;;;;;;10.65;86.24;99718.30;;;;-52
2019/05/03 03:36:32;;;;;;;;;;;;;;;10.68;86.19;99717.80;;;;-51
2019/05/03 03:37:32;;;;;;;;;;;;;;;10.65;86.22;99717.70;;;;-52
2019/05/03 03:38:32;;;;;;;;;;;;;;;10.62;86.29;99715.80;;;;-51
2019/05/03 03:39:32;;;;;;;;;;;;;;;10.56;85.90;99721.70;;;;-52
2019/05/03 03:40:32;;;;;;;;;;;;;;;10.53;85.71;99717.90;;;;-52
2019/05/03 03:41:32;;;;;;;;;;;;;;;10.55;86.06;99720.80;;;;-52
2019/05/03 03:42:32;;;;;;;;;;;;;;;10.52;86.27;99717.10;;;;-52
2019/05/03 03:43:32;;;;;;;;;;;;;;;10.55;86.26;99720.40;;;;-54
2019/05/03 03:44:32;;;;;;;;;;;;;;;10.53;86.26;99720.40;;;;-53
2019/05/03 03:45:32;;;;;;;;;;;;;;;10.59;86.18;99718.70;;;;-54
2019/05/03 03:46:32;;;;;;;;;;;;;;;10.55;85.85;99722.70;;;;-53
2019/05/03 03:47:32;;;;;;;;;;;;;;;10.52;85.58;99722.80;;;;-55
2019/05/03 03:48:32;;;;;;;;;;;;;;;10.59;86.15;99724.70;;;;-55
2019/05/03 03:49:32;;;;;;;;;;;;;;;10.55;86.11;99724.70;;;;-54
2019/05/03 03:50:32;;;;;;;;;;;;;;;10.55;85.42;99722.50;;;;-52
2019/05/03 03:51:32;;;;;;;;;;;;;;;10.52;84.32;99726.10;;;;-54
2019/05/03 03:52:32;;;;;;;;;;;;;;;10.55;84.97;99729.80;;;;-54
2019/05/03 03:53:32;;;;;;;;;;;;;;;10.51;84.93;99728.50;;;;-54
2019/05/03 03:54:32;;;;;;;;;;;;;;;10.48;85.35;99728.10;;;;-53
2019/05/03 03:55:32;;;;;;;;;;;;;;;10.45;83.83;99730.90;;;;-56
2019/05/03 03:56:32;;;;;;;;;;;;;;;10.44;83.80;99731.60;;;;-55
2019/05/03 03:57:32;;;;;;;;;;;;;;;10.44;83.86;99731.30;;;;-52
2019/05/03 03:58:32;;;;;;;;;;;;;;;10.44;84.29;99733.70;;;;-52
2019/05/03 03:59:32;;;;;;;;;;;;;;;10.42;84.27;99736.60;;;;-52
2019/05/03 04:00:32;;;;;;;;;;;;;;;10.42;83.80;99734.80;;;;-53
2019/05/03 04:01:32;;;;;;;;;;;;;;;10.42;84.07;99733.80;;;;-53
2019/05/03 04:02:32;;;;;;;;;;;;;;;10.45;83.94;99733.70;;;;-55
2019/05/03 04:03:32;;;;;;;;;;;;;;;10.47;84.66;99738.40;;;;-54
2019/05/03 04:04:32;;;;;;;;;;;;;;;10.49;82.72;99737.80;;;;-54
2019/05/03 04:05:32;;;;;;;;;;;;;;;10.45;83.46;99741.70;;;;-55
2019/05/03 04:06:41;;;;;;;;;;;;;;;10.39;82.82;99740.10;;;;-53
2019/05/03 04:07:32;;;;;;;;;;;;;;;10.44;83.57;99746.40;;;;-56
2019/05/03 04:08:32;;;;;;;;;;;;;;;10.37;83.20;99743.80;;;;-54
2019/05/03 04:09:32;;;;;;;;;;;;;;;10.41;83.84;99746.10;;;;-54
2019/05/03 04:10:32;;;;;;;;;;;;;;;10.38;84.39;99747.50;;;;-53
2019/05/03 04:11:32;;;;;;;;;;;;;;;10.30;82.93;99749.20;;;;-52
2019/05/03 04:12:32;;;;;;;;;;;;;;;10.27;83.66;99752.00;;;;-54
2019/05/03 04:13:32;;;;;;;;;;;;;;;10.28;83.85;99754.10;;;;-53
2019/05/03 04:15:26;;;;;;;;;;;;;;;10.34;83.70;99753.50;;;;-52
2019/05/03 04:15:40;;;;;;;;;;;;;;;10.28;82.93;99757.40;;;;-52
2019/05/03 04:16:38;;;;;;;;;;;;;;;10.28;83.56;99755.20;;;;-52
2019/05/03 04:19:05;;;;;;;;;;;;;;;10.28;83.84;99757.70;;;;-54
2019/05/03 04:19:55;;;;;;;;;;;;;;;10.35;83.37;99757.80;;;;-54
2019/05/03 04:20:55;;;;;;;;;;;;;;;10.42;83.63;99758.80;;;;-52
2019/05/03 04:21:55;;;;;;;;;;;;;;;10.42;84.33;99758.30;;;;-53
2019/05/03 04:22:55;;;;;;;;;;;;;;;10.39;83.79;99756.80;;;;-52
2019/05/03 04:23:55;;;;;;;;;;;;;;;10.42;83.62;99760.60;;;;-53
2019/05/03 04:24:55;;;;;;;;;;;;;;;10.39;83.39;99761.40;;;;-53
2019/05/03 04:25:55;;;;;;;;;;;;;;;10.42;83.53;99760.70;;;;-55
2019/05/03 04:27:04;;;;;;;;;;;;;;;10.45;83.66;99756.50;;;;-52
2019/05/03 04:27:55;;;;;;;;;;;;;;;10.44;83.94;99755.80;;;;-54
2019/05/03 04:28:55;;;;;;;;;;;;;;;10.41;83.58;99754.10;;;;-53
2019/05/03 04:29:55;;;;;;;;;;;;;;;10.41;83.99;99754.40;;;;-53
2019/05/03 04:30:55;;;;;;;;;;;;;;;10.45;83.95;99757.90;;;;-52
2019/05/03 04:31:55;;;;;;;;;;;;;;;10.42;84.24;99757.40;;;;-52
2019/05/03 04:32:55;;;;;;;;;;;;;;;10.39;83.69;99756.70;;;;-55
2019/05/03 04:33:56;;;;;;;;;;;;;;;10.38;83.90;99761.40;;;;-53
2019/05/03 04:34:55;;;;;;;;;;;;;;;10.39;84.87;99762.10;;;;-55
2019/05/03 04:35:55;;;;;;;;;;;;;;;10.38;86.23;99763.70;;;;-53
2019/05/03 04:36:55;;;;;;;;;;;;;;;10.41;84.74;99764.40;;;;-55
2019/05/03 04:37:55;;;;;;;;;;;;;;;10.37;85.29;99770.50;;;;-53
2019/05/03 04:38:55;;;;;;;;;;;;;;;10.42;85.30;99766.10;;;;-53
2019/05/03 04:39:55;;;;;;;;;;;;;;;10.37;84.98;99771.50;;;;-52
2019/05/03 04:40:55;;;;;;;;;;;;;;;10.42;84.93;99773.20;;;;-53
2019/05/03 04:41:55;;;;;;;;;;;;;;;10.45;85.13;99771.50;;;;-53
2019/05/03 04:42:55;;;;;;;;;;;;;;;10.44;84.78;99774.40;;;;-52
2019/05/03 04:43:55;;;;;;;;;;;;;;;10.44;85.06;99774.40;;;;-54
2019/05/03 04:44:55;;;;;;;;;;;;;;;10.49;85.22;99781.40;;;;-54
2019/05/03 04:46:07;;;;;;;;;;;;;;;10.47;84.41;99781.30;;;;-52
2019/05/03 04:46:55;;;;;;;;;;;;;;;10.49;84.08;99781.00;;;;-55
2019/05/03 04:47:55;;;;;;;;;;;;;;;10.44;84.22;99782.40;;;;-52
2019/05/03 04:48:55;;;;;;;;;;;;;;;10.49;83.93;99783.50;;;;-51
2019/05/03 04:49:55;;;;;;;;;;;;;;;10.49;84.03;99780.40;;;;-52
2019/05/03 04:50:55;;;;;;;;;;;;;;;10.45;83.60;99783.10;;;;-52
2019/05/03 04:51:55;;;;;;;;;;;;;;;10.44;83.78;99784.80;;;;-51
2019/05/03 04:52:55;;;;;;;;;;;;;;;10.45;83.69;99783.80;;;;-52
2019/05/03 04:54:57;;;;;;;;;;;;;;;10.47;83.86;99789.30;;;;-51
2019/05/03 04:55:55;;;;;;;;;;;;;;;10.47;83.67;99787.00;;;;-52
2019/05/03 04:56:55;;;;;;;;;;;;;;;10.39;83.82;99790.80;;;;-53
2019/05/03 04:57:55;;;;;;;;;;;;;;;10.44;84.01;99793.30;;;;-51
2019/05/03 04:58:55;;;;;;;;;;;;;;;10.35;83.10;99789.40;;;;-52
2019/05/03 04:59:55;;;;;;;;;;;;;;;10.41;83.54;99793.70;;;;-51
2019/05/03 05:00:55;;;;;;;;;;;;;;;10.37;83.46;99793.50;;;;-52
2019/05/03 05:01:55;;;;;;;;;;;;;;;10.39;83.47;99796.60;;;;-52
2019/05/03 05:02:55;;;;;;;;;;;;;;;10.35;83.57;99796.10;;;;-52
2019/05/03 05:03:55;;;;;;;;;;;;;;;10.39;83.52;99795.20;;;;-51
2019/05/03 05:04:55;;;;;;;;;;;;;;;10.35;83.81;99796.00;;;;-51
2019/05/03 05:05:55;;;;;;;;;;;;;;;10.41;83.84;99798.10;;;;-50
2019/05/03 05:06:55;;;;;;;;;;;;;;;10.41;82.83;99798.20;;;;-51
2019/05/03 05:07:55;;;;;;;;;;;;;;;10.42;82.75;99801.70;;;;-51
2019/05/03 05:08:55;;;;;;;;;;;;;;;10.45;83.23;99797.10;;;;-52
2019/05/03 05:09:55;;;;;;;;;;;;;;;10.38;82.89;99801.70;;;;-53
2019/05/03 05:10:55;;;;;;;;;;;;;;;10.44;82.90;99803.00;;;;-52
2019/05/03 05:11:55;;;;;;;;;;;;;;;10.45;83.39;99806.50;;;;-56
2019/05/03 05:12:55;;;;;;;;;;;;;;;10.42;83.51;99805.50;;;;-52
2019/05/03 05:13:55;;;;;;;;;;;;;;;10.49;83.47;99805.20;;;;-51
2019/05/03 05:14:55;;;;;;;;;;;;;;;10.51;83.67;99805.00;;;;-50
2019/05/03 05:15:55;;;;;;;;;;;;;;;10.51;82.97;99807.90;;;;-51
2019/05/03 05:16:55;;;;;;;;;;;;;;;10.38;81.94;99808.70;;;;-51
2019/05/03 05:18:33;;;;;;;;;;;;;;;10.44;83.03;99810.80;;;;-52
2019/05/03 05:18:58;;;;;;;;;;;;;;;10.45;82.96;99811.30;;;;-54
2019/05/03 05:20:01;;;;;;;;;;;;;;;10.47;82.49;99809.90;;;;-52
2019/05/03 05:21:08;;;;;;;;;;;;;;;10.34;81.71;99810.50;;;;-53
2019/05/03 05:21:58;;;;;;;;;;;;;;;10.25;81.21;99812.30;;;;-53
2019/05/03 05:22:55;;;;;;;;;;;;;;;10.30;82.59;99814.00;;;;-53
2019/05/03 05:23:57;;;;;;;;;;;;;;;10.41;82.40;99819.80;;;;-53
2019/05/03 05:24:55;;;;;;;;;;;;;;;10.42;82.53;99821.10;;;;-53
2019/05/03 05:26:03;;;;;;;;;;;;;;;10.47;82.70;99819.20;;;;-51
2019/05/03 05:27:10;;;;;;;;;;;;;;;10.47;82.18;99823.00;;;;-52
2019/05/03 05:28:01;;;;;;;;;;;;;;;10.51;81.95;99822.40;;;;-51
2019/05/03 05:28:57;;;;;;;;;;;;;;;10.47;82.69;99823.80;;;;-51
2019/05/03 05:29:56;;;;;;;;;;;;;;;10.38;82.45;99826.00;;;;-51
2019/05/03 05:30:55;;;;;;;;;;;;;;;10.45;83.00;99826.90;;;;-52
2019/05/03 05:31:55;;;;;;;;;;;;;;;10.35;81.99;99825.90;;;;-50
2019/05/03 05:32:55;;;;;;;;;;;;;;;10.42;83.15;99826.90;;;;-50
2019/05/03 05:33:55;;;;;;;;;;;;;;;10.39;82.29;99826.90;;;;-51
2019/05/03 05:34:55;;;;;;;;;;;;;;;10.45;82.60;99825.60;;;;-53
2019/05/03 05:35:55;;;;;;;;;;;;;;;10.52;82.33;99826.90;;;;-52
2019/05/03 05:36:55;;;;;;;;;;;;;;;10.35;81.03;99829.00;;;;-53
2019/05/03 05:37:55;;;;;;;;;;;;;;;10.39;81.71;99830.00;;;;-52
2019/05/03 05:38:55;;;;;;;;;;;;;;;10.42;81.53;99831.20;;;;-52
2019/05/03 05:39:55;;;;;;;;;;;;;;;10.45;81.66;99834.80;;;;-53
2019/05/03 05:40:56;;;;;;;;;;;;;;;10.41;82.23;99831.70;;;;-55
2019/05/03 05:41:55;;;;;;;;;;;;;;;10.35;82.20;99836.20;;;;-53
2019/05/03 05:42:55;;;;;;;;;;;;;;;10.35;80.71;99839.80;;;;-54
2019/05/03 05:43:55;;;;;;;;;;;;;;;10.31;81.41;99839.30;;;;-55
2019/05/03 05:44:55;;;;;;;;;;;;;;;10.31;80.54;99839.30;;;;-55
2019/05/03 05:45:55;;;;;;;;;;;;;;;10.31;81.26;99843.80;;;;-54
2019/05/03 05:47:12;;;;;;;;;;;;;;;10.24;79.71;99844.00;;;;-55
2019/05/03 05:48:00;;;;;;;;;;;;;;;10.21;80.08;99845.20;;;;-56
2019/05/03 05:48:55;;;;;;;;;;;;;;;10.17;80.21;99845.30;;;;-55
2019/05/03 05:49:59;;;;;;;;;;;;;;;10.21;80.00;99845.60;;;;-56
2019/05/03 05:50:55;;;;;;;;;;;;;;;10.21;80.49;99843.70;;;;-55
2019/05/03 05:51:55;;;;;;;;;;;;;;;10.24;79.93;99845.50;;;;-55
2019/05/03 05:52:56;;;;;;;;;;;;;;;10.23;80.04;99848.20;;;;-52
2019/05/03 05:53:56;;;;;;;;;;;;;;;10.25;80.02;99852.50;;;;-51
2019/05/03 05:57:26;;;;;;;;;;;;;;;10.30;79.66;99854.70;;;;-51
2019/05/03 05:57:39;;;;;;;;;;;;;;;10.31;79.42;99858.90;;;;-50
2019/05/03 05:58:33;;;;;;;;;;;;;;;10.31;79.25;99858.70;;;;-52
2019/05/03 05:59:48;;;;;;;;;;;;;;;10.32;79.00;99865.40;;;;-52
2019/05/03 06:00:34;;;;;;;;;;;;;;;10.31;78.97;99861.90;;;;-54
2019/05/03 06:01:33;;;;;;;;;;;;;;;10.38;79.16;99865.00;;;;-51
2019/05/03 06:02:29;;;;;;;;;;;;;;;10.42;79.82;99864.00;;;;-51
2019/05/03 06:03:29;;;;;;;;;;;;;;;10.44;79.12;99870.20;;;;-51
2019/05/03 06:04:30;;;;;;;;;;;;;;;10.52;79.39;99874.60;;;;-53
2019/05/03 06:05:29;;;;;;;;;;;;;;;10.53;79.53;99872.80;;;;-54
2019/05/03 06:11:37;;;;;;;;;;;;;;;10.52;77.89;99876.10;;;;-55
2019/05/03 06:12:21;;;;;;;;;;;;;;;10.51;78.30;99875.50;;;;-55
2019/05/03 06:13:52;;;;;;;;;;;;;;;10.58;77.40;99877.90;;;;-54
2019/05/03 06:14:17;;;;;;;;;;;;;;;10.58;77.29;99876.40;;;;-53
2019/05/03 06:16:25;;;;;;;;;;;;;;;10.65;77.40;99877.40;;;;-52
2019/05/03 06:17:33;;;;;;;;;;;;;;;10.68;77.58;99876.30;;;;-55
2019/05/03 06:18:18;;;;;;;;;;;;;;;10.64;77.16;99881.10;;;;-55
2019/05/03 06:19:18;;;;;;;;;;;;;;;10.65;77.28;99879.80;;;;-54
2019/05/03 06:20:19;;;;;;;;;;;;;;;10.69;77.75;99883.20;;;;-53
2019/05/03 06:21:24;;;;;;;;;;;;;;;10.66;77.85;99881.10;;;;-54
2019/05/03 06:22:24;;;;;;;;;;;;;;;10.65;76.71;99882.20;;;;-51
2019/05/03 06:23:07;;;;;;;;;;;;;;;;;;;;;-44
2019/05/03 06:24:08;;;;;;;;;;;;;;;;;;;;;-48
2019/05/03 06:25:09;;;;;;;;;;;;;;;10.73;78.06;99885.40;;;;-53
2019/05/03 06:26:35;;;;;;;;;;;;;;;;;;;;;-45
2019/05/03 06:27:36;;;;;;;;;;;;;;;;;;;;;-42
2019/05/03 06:28:33;;;;;;;;;;;;;;;10.80;77.52;99888.00;;;;-44
2019/05/03 06:29:31;;;;;;;;;;;;;;;10.86;77.61;99886.50;;;;-44
2019/05/03 06:30:44;;;;;;;;;;;;;;;10.84;77.10;99892.20;;;;-53
2019/05/03 06:31:36;;;;;;;;;;;;;;;10.84;76.61;99889.20;;;;-49
2019/05/03 06:32:36;;;;;;;;;;;;;;;10.90;75.87;99888.50;;;;-54
2019/05/03 06:33:31;;;;;;;;;;;;;;;10.93;76.45;99891.10;;;;-53
2019/05/03 06:34:31;;;;;;;;;;;;;;;11.08;77.42;99889.80;;;;-47
2019/05/03 06:35:31;;;;;;;;;;;;;;;11.07;77.01;99890.90;;;;-52
2019/05/03 06:36:32;;;;;;;;;;;;;;;;;;;;;-43
2019/05/03 06:37:37;;;;;;;;;;;;;;;;;;;;;-46
2019/05/03 06:38:32;;;;;;;;;;;;;;;11.15;75.96;99891.50;;;;-50
2019/05/03 06:39:51;;;;;;;;;;;;;;;;;;;;;-44
2019/05/03 06:40:51;;;;;;;;;;;;;;;;;;;;;-47
2019/05/03 06:41:50;;;;;;;;;;;;;;;11.14;75.17;99888.50;;;;-44
2019/05/03 06:42:50;;;;;;;;;;;;;;;11.10;75.21;99887.30;;;;-53